sensor_id;sensor_type;location;lat;lon;timestamp;P1;durP1;ratioP1;P2;durP2;ratioP2
30380;SDS011;17169;50.966;11.038;2023-12-20T00:01:33;1.10;;;0.60;;
30380;SDS011;17169;50.966;11.038;2023-12-20T00:04:37;0.60;;;0.57;;
30380;SDS011;17169;50.966;11.038;2023-12-20T00:07:39;1.00;;;0.70;;
30380;SDS011;17169;50.966;11.038;2023-12-20T00:10:42;0.73;;;0.57;;
30380;SDS011;17169;50.966;11.038;2023-12-20T00:13:45;0.95;;;0.60;;
30380;SDS011;17169;50.966;11.038;2023-12-20T00:16:48;0.95;;;0.70;;
30380;SDS011;17169;50.966;11.038;2023-12-20T00:19:51;0.50;;;0.50;;
30380;SDS011;17169;50.966;11.038;2023-12-20T00:22:54;0.63;;;0.60;;
30380;SDS011;17169;50.966;11.038;2023-12-20T00:25:58;0.50;;;0.50;;
30380;SDS011;17169;50.966;11.038;2023-12-20T00:29:00;0.85;;;0.68;;
30380;SDS011;17169;50.966;11.038;2023-12-20T00:32:03;0.50;;;0.50;;
30380;SDS011;17169;50.966;11.038;2023-12-20T00:35:07;0.77;;;0.60;;
30380;SDS011;17169;50.966;11.038;2023-12-20T00:38:09;0.68;;;0.68;;
30380;SDS011;17169;50.966;11.038;2023-12-20T00:41:12;0.80;;;0.50;;
30380;SDS011;17169;50.966;11.038;2023-12-20T00:44:14;0.40;;;0.40;;
30380;SDS011;17169;50.966;11.038;2023-12-20T00:47:17;0.50;;;0.50;;
30380;SDS011;17169;50.966;11.038;2023-12-20T00:50:21;0.45;;;0.45;;
30380;SDS011;17169;50.966;11.038;2023-12-20T00:53:23;0.50;;;0.50;;
30380;SDS011;17169;50.966;11.038;2023-12-20T00:56:26;0.85;;;0.65;;
30380;SDS011;17169;50.966;11.038;2023-12-20T00:59:28;0.50;;;0.50;;
30380;SDS011;17169;50.966;11.038;2023-12-20T01:02:30;1.35;;;0.60;;
30380;SDS011;17169;50.966;11.038;2023-12-20T01:05:34;0.60;;;0.60;;
30380;SDS011;17169;50.966;11.038;2023-12-20T01:08:37;0.50;;;0.50;;
30380;SDS011;17169;50.966;11.038;2023-12-20T01:11:39;0.75;;;0.50;;
30380;SDS011;17169;50.966;11.038;2023-12-20T01:14:41;0.52;;;0.50;;
30380;SDS011;17169;50.966;11.038;2023-12-20T01:17:44;0.55;;;0.50;;
30380;SDS011;17169;50.966;11.038;2023-12-20T01:20:48;0.60;;;0.60;;
30380;SDS011;17169;50.966;11.038;2023-12-20T01:23:50;0.50;;;0.50;;
30380;SDS011;17169;50.966;11.038;2023-12-20T01:26:52;0.50;;;0.50;;
30380;SDS011;17169;50.966;11.038;2023-12-20T01:29:55;0.50;;;0.50;;
30380;SDS011;17169;50.966;11.038;2023-12-20T01:32:57;0.40;;;0.40;;
30380;SDS011;17169;50.966;11.038;2023-12-20T01:36:03;0.50;;;0.50;;
30380;SDS011;17169;50.966;11.038;2023-12-20T01:39:06;0.60;;;0.60;;
30380;SDS011;17169;50.966;11.038;2023-12-20T01:42:08;0.40;;;0.40;;
30380;SDS011;17169;50.966;11.038;2023-12-20T01:45:10;0.50;;;0.50;;
30380;SDS011;17169;50.966;11.038;2023-12-20T01:48:13;0.50;;;0.50;;
30380;SDS011;17169;50.966;11.038;2023-12-20T01:51:19;0.60;;;0.60;;
30380;SDS011;17169;50.966;11.038;2023-12-20T01:54:22;1.47;;;0.60;;
30380;SDS011;17169;50.966;11.038;2023-12-20T01:57:24;0.60;;;0.60;;
30380;SDS011;17169;50.966;11.038;2023-12-20T02:00:27;0.77;;;0.52;;
30380;SDS011;17169;50.966;11.038;2023-12-20T02:03:31;0.77;;;0.60;;
30380;SDS011;17169;50.966;11.038;2023-12-20T02:06:35;0.50;;;0.50;;
30380;SDS011;17169;50.966;11.038;2023-12-20T02:09:38;0.65;;;0.65;;
30380;SDS011;17169;50.966;11.038;2023-12-20T02:12:41;0.60;;;0.60;;
30380;SDS011;17169;50.966;11.038;2023-12-20T02:15:44;2.13;;;0.60;;
30380;SDS011;17169;50.966;11.038;2023-12-20T02:18:46;0.70;;;0.57;;
30380;SDS011;17169;50.966;11.038;2023-12-20T02:21:50;1.05;;;0.50;;
30380;SDS011;17169;50.966;11.038;2023-12-20T02:25:06;1.63;;;0.45;;
30380;SDS011;17169;50.966;11.038;2023-12-20T02:28:09;0.68;;;0.60;;
30380;SDS011;17169;50.966;11.038;2023-12-20T02:31:11;0.65;;;0.65;;
30380;SDS011;17169;50.966;11.038;2023-12-20T02:34:14;0.45;;;0.45;;
30380;SDS011;17169;50.966;11.038;2023-12-20T02:37:17;0.50;;;0.50;;
30380;SDS011;17169;50.966;11.038;2023-12-20T02:40:20;3.30;;;0.50;;
30380;SDS011;17169;50.966;11.038;2023-12-20T02:43:22;0.50;;;0.50;;
30380;SDS011;17169;50.966;11.038;2023-12-20T02:46:24;0.50;;;0.50;;
30380;SDS011;17169;50.966;11.038;2023-12-20T02:49:27;0.63;;;0.50;;
30380;SDS011;17169;50.966;11.038;2023-12-20T02:52:30;0.50;;;0.50;;
30380;SDS011;17169;50.966;11.038;2023-12-20T02:55:33;0.60;;;0.60;;
30380;SDS011;17169;50.966;11.038;2023-12-20T02:58:35;0.82;;;0.57;;
30380;SDS011;17169;50.966;11.038;2023-12-20T03:01:41;0.50;;;0.50;;
30380;SDS011;17169;50.966;11.038;2023-12-20T03:04:44;0.43;;;0.43;;
30380;SDS011;17169;50.966;11.038;2023-12-20T03:07:48;0.50;;;0.50;;
30380;SDS011;17169;50.966;11.038;2023-12-20T03:10:50;0.75;;;0.68;;
30380;SDS011;17169;50.966;11.038;2023-12-20T03:13:53;0.50;;;0.50;;
30380;SDS011;17169;50.966;11.038;2023-12-20T03:16:56;0.40;;;0.40;;
30380;SDS011;17169;50.966;11.038;2023-12-20T03:19:58;0.50;;;0.50;;
30380;SDS011;17169;50.966;11.038;2023-12-20T03:23:02;0.60;;;0.60;;
30380;SDS011;17169;50.966;11.038;2023-12-20T03:26:06;1.07;;;0.97;;
30380;SDS011;17169;50.966;11.038;2023-12-20T03:29:09;3.00;;;1.63;;
30380;SDS011;17169;50.966;11.038;2023-12-20T03:32:11;13.50;;;7.22;;
30380;SDS011;17169;50.966;11.038;2023-12-20T03:35:13;6.47;;;3.00;;
30380;SDS011;17169;50.966;11.038;2023-12-20T03:38:17;1.17;;;0.80;;
30380;SDS011;17169;50.966;11.038;2023-12-20T03:41:20;2.47;;;1.42;;
30380;SDS011;17169;50.966;11.038;2023-12-20T03:44:22;4.95;;;2.63;;
30380;SDS011;17169;50.966;11.038;2023-12-20T03:47:24;0.73;;;0.60;;
30380;SDS011;17169;50.966;11.038;2023-12-20T03:50:27;0.70;;;0.70;;
30380;SDS011;17169;50.966;11.038;2023-12-20T03:53:30;0.93;;;0.70;;
30380;SDS011;17169;50.966;11.038;2023-12-20T03:56:33;0.50;;;0.50;;
30380;SDS011;17169;50.966;11.038;2023-12-20T03:59:36;0.50;;;0.50;;
30380;SDS011;17169;50.966;11.038;2023-12-20T04:02:39;0.50;;;0.50;;
30380;SDS011;17169;50.966;11.038;2023-12-20T04:05:42;0.77;;;0.60;;
30380;SDS011;17169;50.966;11.038;2023-12-20T04:08:46;0.65;;;0.60;;
30380;SDS011;17169;50.966;11.038;2023-12-20T04:11:48;1.90;;;1.00;;
30380;SDS011;17169;50.966;11.038;2023-12-20T04:14:50;0.52;;;0.52;;
30380;SDS011;17169;50.966;11.038;2023-12-20T04:17:53;0.52;;;0.52;;
30380;SDS011;17169;50.966;11.038;2023-12-20T04:20:55;1.15;;;0.88;;
30380;SDS011;17169;50.966;11.038;2023-12-20T04:23:59;0.57;;;0.52;;
30380;SDS011;17169;50.966;11.038;2023-12-20T04:27:01;0.75;;;0.68;;
30380;SDS011;17169;50.966;11.038;2023-12-20T04:30:04;0.65;;;0.63;;
30380;SDS011;17169;50.966;11.038;2023-12-20T04:33:08;0.95;;;0.70;;
30380;SDS011;17169;50.966;11.038;2023-12-20T04:36:10;0.77;;;0.63;;
30380;SDS011;17169;50.966;11.038;2023-12-20T04:39:14;0.77;;;0.70;;
30380;SDS011;17169;50.966;11.038;2023-12-20T04:42:16;1.25;;;0.77;;
30380;SDS011;17169;50.966;11.038;2023-12-20T04:45:19;1.40;;;0.80;;
30380;SDS011;17169;50.966;11.038;2023-12-20T04:48:21;2.45;;;1.10;;
30380;SDS011;17169;50.966;11.038;2023-12-20T04:51:23;0.73;;;0.70;;
30380;SDS011;17169;50.966;11.038;2023-12-20T04:54:27;0.75;;;0.70;;
30380;SDS011;17169;50.966;11.038;2023-12-20T04:57:30;1.05;;;0.88;;
30380;SDS011;17169;50.966;11.038;2023-12-20T05:00:32;0.90;;;0.90;;
30380;SDS011;17169;50.966;11.038;2023-12-20T05:03:34;1.60;;;1.13;;
30380;SDS011;17169;50.966;11.038;2023-12-20T05:06:37;2.22;;;1.40;;
30380;SDS011;17169;50.966;11.038;2023-12-20T05:09:40;1.88;;;1.20;;
30380;SDS011;17169;50.966;11.038;2023-12-20T05:12:43;5.63;;;1.40;;
30380;SDS011;17169;50.966;11.038;2023-12-20T05:15:45;1.92;;;1.25;;
30380;SDS011;17169;50.966;11.038;2023-12-20T05:18:48;2.10;;;1.40;;
30380;SDS011;17169;50.966;11.038;2023-12-20T05:21:52;2.50;;;1.58;;
30380;SDS011;17169;50.966;11.038;2023-12-20T05:24:56;2.67;;;1.60;;
30380;SDS011;17169;50.966;11.038;2023-12-20T05:27:58;5.25;;;2.03;;
30380;SDS011;17169;50.966;11.038;2023-12-20T05:31:01;3.03;;;1.60;;
30380;SDS011;17169;50.966;11.038;2023-12-20T05:34:03;2.47;;;1.52;;
30380;SDS011;17169;50.966;11.038;2023-12-20T05:37:06;5.22;;;1.70;;
30380;SDS011;17169;50.966;11.038;2023-12-20T05:40:10;2.60;;;1.77;;
30380;SDS011;17169;50.966;11.038;2023-12-20T05:43:12;3.47;;;1.90;;
30380;SDS011;17169;50.966;11.038;2023-12-20T05:46:15;2.58;;;1.65;;
30380;SDS011;17169;50.966;11.038;2023-12-20T05:49:17;2.58;;;1.70;;
30380;SDS011;17169;50.966;11.038;2023-12-20T05:52:19;2.63;;;1.55;;
30380;SDS011;17169;50.966;11.038;2023-12-20T05:55:23;6.85;;;1.77;;
30380;SDS011;17169;50.966;11.038;2023-12-20T05:58:26;5.18;;;1.75;;
30380;SDS011;17169;50.966;11.038;2023-12-20T06:01:28;2.33;;;1.40;;
30380;SDS011;17169;50.966;11.038;2023-12-20T06:04:30;2.90;;;1.58;;
30380;SDS011;17169;50.966;11.038;2023-12-20T06:07:33;2.70;;;1.75;;
30380;SDS011;17169;50.966;11.038;2023-12-20T06:10:37;3.20;;;1.70;;
30380;SDS011;17169;50.966;11.038;2023-12-20T06:13:39;3.05;;;1.70;;
30380;SDS011;17169;50.966;11.038;2023-12-20T06:16:42;4.72;;;1.80;;
30380;SDS011;17169;50.966;11.038;2023-12-20T06:19:45;9.63;;;2.17;;
30380;SDS011;17169;50.966;11.038;2023-12-20T06:22:48;3.78;;;2.17;;
30380;SDS011;17169;50.966;11.038;2023-12-20T06:25:52;5.30;;;2.25;;
30380;SDS011;17169;50.966;11.038;2023-12-20T06:28:55;3.65;;;2.22;;
30380;SDS011;17169;50.966;11.038;2023-12-20T06:31:57;3.60;;;2.10;;
30380;SDS011;17169;50.966;11.038;2023-12-20T06:34:59;3.35;;;2.00;;
30380;SDS011;17169;50.966;11.038;2023-12-20T06:38:02;5.80;;;2.13;;
30380;SDS011;17169;50.966;11.038;2023-12-20T06:41:06;5.57;;;2.30;;
30380;SDS011;17169;50.966;11.038;2023-12-20T06:44:08;3.08;;;2.05;;
30380;SDS011;17169;50.966;11.038;2023-12-20T06:47:10;4.53;;;1.75;;
30380;SDS011;17169;50.966;11.038;2023-12-20T06:50:14;6.55;;;1.70;;
30380;SDS011;17169;50.966;11.038;2023-12-20T06:53:17;6.45;;;2.20;;
30380;SDS011;17169;50.966;11.038;2023-12-20T06:56:20;3.67;;;1.95;;
30380;SDS011;17169;50.966;11.038;2023-12-20T06:59:23;5.10;;;1.80;;
30380;SDS011;17169;50.966;11.038;2023-12-20T07:02:25;4.38;;;2.15;;
30380;SDS011;17169;50.966;11.038;2023-12-20T07:05:30;5.65;;;2.13;;
30380;SDS011;17169;50.966;11.038;2023-12-20T07:08:33;4.43;;;2.80;;
30380;SDS011;17169;50.966;11.038;2023-12-20T07:11:37;5.53;;;2.55;;
30380;SDS011;17169;50.966;11.038;2023-12-20T07:14:39;10.82;;;2.67;;
30380;SDS011;17169;50.966;11.038;2023-12-20T07:17:42;4.10;;;2.47;;
30380;SDS011;17169;50.966;11.038;2023-12-20T07:20:44;4.63;;;2.33;;
30380;SDS011;17169;50.966;11.038;2023-12-20T07:23:47;5.43;;;2.20;;
30380;SDS011;17169;50.966;11.038;2023-12-20T07:26:51;6.45;;;2.00;;
30380;SDS011;17169;50.966;11.038;2023-12-20T07:29:54;6.75;;;2.25;;
30380;SDS011;17169;50.966;11.038;2023-12-20T07:32:56;3.72;;;1.88;;
30380;SDS011;17169;50.966;11.038;2023-12-20T07:35:59;3.55;;;1.83;;
30380;SDS011;17169;50.966;11.038;2023-12-20T07:39:02;3.53;;;1.80;;
30380;SDS011;17169;50.966;11.038;2023-12-20T07:42:06;4.70;;;2.35;;
30380;SDS011;17169;50.966;11.038;2023-12-20T07:45:08;6.72;;;2.08;;
30380;SDS011;17169;50.966;11.038;2023-12-20T07:48:12;6.50;;;2.33;;
30380;SDS011;17169;50.966;11.038;2023-12-20T07:51:14;5.47;;;2.42;;
30380;SDS011;17169;50.966;11.038;2023-12-20T07:54:17;6.55;;;2.17;;
30380;SDS011;17169;50.966;11.038;2023-12-20T07:57:20;6.53;;;2.22;;
30380;SDS011;17169;50.966;11.038;2023-12-20T08:00:23;10.52;;;2.42;;
30380;SDS011;17169;50.966;11.038;2023-12-20T08:03:25;6.63;;;2.40;;
30380;SDS011;17169;50.966;11.038;2023-12-20T08:06:27;4.32;;;2.05;;
30380;SDS011;17169;50.966;11.038;2023-12-20T08:09:30;4.13;;;1.75;;
30380;SDS011;17169;50.966;11.038;2023-12-20T08:12:34;5.25;;;2.22;;
30380;SDS011;17169;50.966;11.038;2023-12-20T08:15:36;6.78;;;2.40;;
30380;SDS011;17169;50.966;11.038;2023-12-20T08:18:38;6.70;;;2.53;;
30380;SDS011;17169;50.966;11.038;2023-12-20T08:21:41;14.50;;;3.85;;
30380;SDS011;17169;50.966;11.038;2023-12-20T08:24:43;8.13;;;3.33;;
30380;SDS011;17169;50.966;11.038;2023-12-20T08:27:47;6.55;;;2.88;;
30380;SDS011;17169;50.966;11.038;2023-12-20T08:30:49;6.00;;;2.60;;
30380;SDS011;17169;50.966;11.038;2023-12-20T08:33:54;6.63;;;2.47;;
30380;SDS011;17169;50.966;11.038;2023-12-20T08:36:56;5.32;;;3.00;;
30380;SDS011;17169;50.966;11.038;2023-12-20T08:39:58;6.80;;;2.50;;
30380;SDS011;17169;50.966;11.038;2023-12-20T08:43:02;7.25;;;2.58;;
30380;SDS011;17169;50.966;11.038;2023-12-20T08:46:05;6.03;;;2.35;;
30380;SDS011;17169;50.966;11.038;2023-12-20T08:49:10;8.05;;;2.70;;
30380;SDS011;17169;50.966;11.038;2023-12-20T08:52:12;8.65;;;2.20;;
30380;SDS011;17169;50.966;11.038;2023-12-20T08:55:14;8.73;;;2.80;;
30380;SDS011;17169;50.966;11.038;2023-12-20T08:58:20;8.65;;;2.65;;
30380;SDS011;17169;50.966;11.038;2023-12-20T09:01:22;9.05;;;2.20;;
30380;SDS011;17169;50.966;11.038;2023-12-20T09:04:24;7.78;;;2.03;;
30380;SDS011;17169;50.966;11.038;2023-12-20T09:07:27;6.97;;;1.80;;
30380;SDS011;17169;50.966;11.038;2023-12-20T09:10:31;8.55;;;2.35;;
30380;SDS011;17169;50.966;11.038;2023-12-20T09:13:34;4.65;;;1.65;;
30380;SDS011;17169;50.966;11.038;2023-12-20T09:16:36;7.03;;;1.83;;
30380;SDS011;17169;50.966;11.038;2023-12-20T09:19:39;8.43;;;1.98;;
30380;SDS011;17169;50.966;11.038;2023-12-20T09:22:41;7.45;;;2.20;;
30380;SDS011;17169;50.966;11.038;2023-12-20T09:25:44;7.93;;;2.00;;
30380;SDS011;17169;50.966;11.038;2023-12-20T09:28:47;6.75;;;1.85;;
30380;SDS011;17169;50.966;11.038;2023-12-20T09:31:50;4.57;;;1.60;;
30380;SDS011;17169;50.966;11.038;2023-12-20T09:34:52;11.15;;;1.55;;
30380;SDS011;17169;50.966;11.038;2023-12-20T09:37:55;7.97;;;2.13;;
30380;SDS011;17169;50.966;11.038;2023-12-20T09:40:57;4.85;;;2.03;;
30380;SDS011;17169;50.966;11.038;2023-12-20T09:44:03;8.87;;;1.93;;
30380;SDS011;17169;50.966;11.038;2023-12-20T09:47:05;6.70;;;1.65;;
30380;SDS011;17169;50.966;11.038;2023-12-20T09:50:08;8.82;;;1.73;;
30380;SDS011;17169;50.966;11.038;2023-12-20T09:53:11;7.00;;;2.13;;
30380;SDS011;17169;50.966;11.038;2023-12-20T09:56:17;8.43;;;2.03;;
30380;SDS011;17169;50.966;11.038;2023-12-20T09:59:21;9.30;;;1.90;;
30380;SDS011;17169;50.966;11.038;2023-12-20T10:02:24;6.65;;;2.00;;
30380;SDS011;17169;50.966;11.038;2023-12-20T10:05:28;6.70;;;2.22;;
30380;SDS011;17169;50.966;11.038;2023-12-20T10:08:31;6.25;;;2.03;;
30380;SDS011;17169;50.966;11.038;2023-12-20T10:11:34;9.90;;;2.38;;
30380;SDS011;17169;50.966;11.038;2023-12-20T10:14:39;7.15;;;1.70;;
30380;SDS011;17169;50.966;11.038;2023-12-20T10:17:42;9.25;;;2.13;;
30380;SDS011;17169;50.966;11.038;2023-12-20T10:20:44;5.00;;;1.60;;
30380;SDS011;17169;50.966;11.038;2023-12-20T10:23:47;8.25;;;2.30;;
30380;SDS011;17169;50.966;11.038;2023-12-20T10:26:57;9.63;;;1.88;;
30380;SDS011;17169;50.966;11.038;2023-12-20T10:30:06;7.55;;;2.08;;
30380;SDS011;17169;50.966;11.038;2023-12-20T10:36:12;4.72;;;1.60;;
30380;SDS011;17169;50.966;11.038;2023-12-20T10:39:14;7.65;;;2.30;;
30380;SDS011;17169;50.966;11.038;2023-12-20T10:42:18;9.80;;;2.05;;
30380;SDS011;17169;50.966;11.038;2023-12-20T10:45:24;6.20;;;1.53;;
30380;SDS011;17169;50.966;11.038;2023-12-20T10:48:26;5.47;;;1.60;;
30380;SDS011;17169;50.966;11.038;2023-12-20T10:51:30;2.35;;;1.30;;
30380;SDS011;17169;50.966;11.038;2023-12-20T10:54:35;8.27;;;1.75;;
30380;SDS011;17169;50.966;11.038;2023-12-20T10:57:38;4.20;;;2.17;;
30380;SDS011;17169;50.966;11.038;2023-12-20T11:00:42;8.55;;;1.75;;
30380;SDS011;17169;50.966;11.038;2023-12-20T11:03:48;6.63;;;1.70;;
30380;SDS011;17169;50.966;11.038;2023-12-20T11:06:52;4.05;;;1.60;;
30380;SDS011;17169;50.966;11.038;2023-12-20T11:10:02;9.80;;;2.58;;
30380;SDS011;17169;50.966;11.038;2023-12-20T11:13:15;6.13;;;1.50;;
30380;SDS011;17169;50.966;11.038;2023-12-20T11:16:23;7.80;;;1.30;;
30380;SDS011;17169;50.966;11.038;2023-12-20T11:19:26;10.48;;;1.70;;
30380;SDS011;17169;50.966;11.038;2023-12-20T11:22:30;4.05;;;1.45;;
30380;SDS011;17169;50.966;11.038;2023-12-20T11:25:46;3.80;;;1.20;;
30380;SDS011;17169;50.966;11.038;2023-12-20T11:28:50;5.95;;;1.63;;
30380;SDS011;17169;50.966;11.038;2023-12-20T11:31:53;6.00;;;1.58;;
30380;SDS011;17169;50.966;11.038;2023-12-20T11:34:56;5.22;;;1.50;;
30380;SDS011;17169;50.966;11.038;2023-12-20T11:38:00;5.65;;;1.80;;
30380;SDS011;17169;50.966;11.038;2023-12-20T11:41:04;6.22;;;1.77;;
30380;SDS011;17169;50.966;11.038;2023-12-20T11:44:07;3.92;;;1.58;;
30380;SDS011;17169;50.966;11.038;2023-12-20T11:47:13;9.73;;;1.92;;
30380;SDS011;17169;50.966;11.038;2023-12-20T11:50:16;5.07;;;1.70;;
30380;SDS011;17169;50.966;11.038;2023-12-20T11:53:18;9.15;;;1.50;;
30380;SDS011;17169;50.966;11.038;2023-12-20T11:56:21;5.78;;;1.25;;
30380;SDS011;17169;50.966;11.038;2023-12-20T11:59:24;3.47;;;1.73;;
30380;SDS011;17169;50.966;11.038;2023-12-20T12:02:27;6.10;;;1.70;;
30380;SDS011;17169;50.966;11.038;2023-12-20T12:05:30;5.72;;;1.42;;
30380;SDS011;17169;50.966;11.038;2023-12-20T12:08:33;7.93;;;1.98;;
30380;SDS011;17169;50.966;11.038;2023-12-20T12:11:37;9.02;;;1.88;;
30380;SDS011;17169;50.966;11.038;2023-12-20T12:14:39;5.10;;;1.52;;
30380;SDS011;17169;50.966;11.038;2023-12-20T12:17:43;3.38;;;1.20;;
30380;SDS011;17169;50.966;11.038;2023-12-20T12:20:45;6.97;;;1.90;;
30380;SDS011;17169;50.966;11.038;2023-12-20T12:23:48;9.48;;;2.50;;
30380;SDS011;17169;50.966;11.038;2023-12-20T12:26:50;3.88;;;1.15;;
30380;SDS011;17169;50.966;11.038;2023-12-20T12:30:02;3.88;;;1.33;;
30380;SDS011;17169;50.966;11.038;2023-12-20T12:33:09;8.32;;;1.88;;
30380;SDS011;17169;50.966;11.038;2023-12-20T12:36:12;3.58;;;1.25;;
30380;SDS011;17169;50.966;11.038;2023-12-20T12:39:17;5.68;;;1.42;;
30380;SDS011;17169;50.966;11.038;2023-12-20T12:42:19;5.75;;;1.50;;
30380;SDS011;17169;50.966;11.038;2023-12-20T12:45:22;4.68;;;1.48;;
30380;SDS011;17169;50.966;11.038;2023-12-20T12:48:26;5.40;;;1.20;;
30380;SDS011;17169;50.966;11.038;2023-12-20T12:51:29;5.10;;;1.43;;
30380;SDS011;17169;50.966;11.038;2023-12-20T12:54:32;4.53;;;1.40;;
30380;SDS011;17169;50.966;11.038;2023-12-20T12:57:34;3.03;;;1.38;;
30380;SDS011;17169;50.966;11.038;2023-12-20T13:00:37;3.63;;;1.35;;
30380;SDS011;17169;50.966;11.038;2023-12-20T13:03:40;5.00;;;1.13;;
30380;SDS011;17169;50.966;11.038;2023-12-20T13:06:43;4.38;;;1.23;;
30380;SDS011;17169;50.966;11.038;2023-12-20T13:09:45;4.97;;;1.67;;
30380;SDS011;17169;50.966;11.038;2023-12-20T13:12:47;4.15;;;1.42;;
30380;SDS011;17169;50.966;11.038;2023-12-20T13:15:50;4.20;;;1.40;;
30380;SDS011;17169;50.966;11.038;2023-12-20T13:22:00;5.22;;;1.33;;
30380;SDS011;17169;50.966;11.038;2023-12-20T13:25:03;1.70;;;1.02;;
30380;SDS011;17169;50.966;11.038;2023-12-20T13:28:05;6.03;;;1.55;;
30380;SDS011;17169;50.966;11.038;2023-12-20T13:31:08;4.85;;;1.52;;
30380;SDS011;17169;50.966;11.038;2023-12-20T13:34:12;5.63;;;1.40;;
30380;SDS011;17169;50.966;11.038;2023-12-20T13:37:15;4.00;;;1.20;;
30380;SDS011;17169;50.966;11.038;2023-12-20T13:40:17;3.67;;;1.30;;
30380;SDS011;17169;50.966;11.038;2023-12-20T13:43:20;5.30;;;1.35;;
30380;SDS011;17169;50.966;11.038;2023-12-20T13:46:23;11.20;;;1.40;;
30380;SDS011;17169;50.966;11.038;2023-12-20T13:49:27;3.90;;;1.20;;
30380;SDS011;17169;50.966;11.038;2023-12-20T13:52:29;3.35;;;1.20;;
30380;SDS011;17169;50.966;11.038;2023-12-20T13:55:31;10.57;;;2.20;;
30380;SDS011;17169;50.966;11.038;2023-12-20T13:58:34;3.72;;;1.42;;
30380;SDS011;17169;50.966;11.038;2023-12-20T14:01:36;8.13;;;1.40;;
30380;SDS011;17169;50.966;11.038;2023-12-20T14:04:40;2.25;;;1.13;;
30380;SDS011;17169;50.966;11.038;2023-12-20T14:07:42;2.92;;;1.20;;
30380;SDS011;17169;50.966;11.038;2023-12-20T14:10:45;3.72;;;1.40;;
30380;SDS011;17169;50.966;11.038;2023-12-20T14:13:48;5.78;;;1.55;;
30380;SDS011;17169;50.966;11.038;2023-12-20T14:16:50;4.25;;;1.40;;
30380;SDS011;17169;50.966;11.038;2023-12-20T14:19:54;3.95;;;1.35;;
30380;SDS011;17169;50.966;11.038;2023-12-20T14:22:56;4.53;;;1.10;;
30380;SDS011;17169;50.966;11.038;2023-12-20T14:25:59;5.18;;;1.20;;
30380;SDS011;17169;50.966;11.038;2023-12-20T14:29:02;4.35;;;1.20;;
30380;SDS011;17169;50.966;11.038;2023-12-20T14:32:05;5.72;;;1.30;;
30380;SDS011;17169;50.966;11.038;2023-12-20T14:35:09;4.75;;;1.50;;
30380;SDS011;17169;50.966;11.038;2023-12-20T14:38:11;6.88;;;1.48;;
30380;SDS011;17169;50.966;11.038;2023-12-20T14:41:15;4.90;;;1.65;;
30380;SDS011;17169;50.966;11.038;2023-12-20T14:44:19;5.65;;;1.80;;
30380;SDS011;17169;50.966;11.038;2023-12-20T14:47:22;4.47;;;1.30;;
30380;SDS011;17169;50.966;11.038;2023-12-20T14:50:26;5.22;;;1.10;;
30380;SDS011;17169;50.966;11.038;2023-12-20T14:53:29;7.50;;;1.38;;
30380;SDS011;17169;50.966;11.038;2023-12-20T14:56:31;5.07;;;1.55;;
30380;SDS011;17169;50.966;11.038;2023-12-20T14:59:34;5.78;;;1.20;;
30380;SDS011;17169;50.966;11.038;2023-12-20T15:02:36;4.60;;;1.20;;
30380;SDS011;17169;50.966;11.038;2023-12-20T15:05:40;3.83;;;1.23;;
30380;SDS011;17169;50.966;11.038;2023-12-20T15:08:42;2.88;;;1.30;;
30380;SDS011;17169;50.966;11.038;2023-12-20T15:11:44;3.88;;;1.60;;
30380;SDS011;17169;50.966;11.038;2023-12-20T15:14:47;8.00;;;2.00;;
30380;SDS011;17169;50.966;11.038;2023-12-20T15:17:49;6.85;;;2.00;;
30380;SDS011;17169;50.966;11.038;2023-12-20T15:20:53;7.97;;;2.40;;
30380;SDS011;17169;50.966;11.038;2023-12-20T15:23:56;4.55;;;1.65;;
30380;SDS011;17169;50.966;11.038;2023-12-20T15:27:06;5.18;;;1.58;;
30380;SDS011;17169;50.966;11.038;2023-12-20T15:30:09;6.40;;;1.70;;
30380;SDS011;17169;50.966;11.038;2023-12-20T15:33:12;3.70;;;1.45;;
30380;SDS011;17169;50.966;11.038;2023-12-20T15:36:15;5.47;;;1.60;;
30380;SDS011;17169;50.966;11.038;2023-12-20T15:39:18;14.40;;;2.42;;
30380;SDS011;17169;50.966;11.038;2023-12-20T15:42:20;7.43;;;2.40;;
30380;SDS011;17169;50.966;11.038;2023-12-20T15:45:23;7.05;;;1.80;;
30380;SDS011;17169;50.966;11.038;2023-12-20T15:48:25;3.28;;;1.50;;
30380;SDS011;17169;50.966;11.038;2023-12-20T15:51:31;3.17;;;1.67;;
30380;SDS011;17169;50.966;11.038;2023-12-20T15:54:35;5.97;;;1.80;;
30380;SDS011;17169;50.966;11.038;2023-12-20T15:57:39;6.03;;;1.77;;
30380;SDS011;17169;50.966;11.038;2023-12-20T16:00:42;5.32;;;1.67;;
30380;SDS011;17169;50.966;11.038;2023-12-20T16:03:44;5.90;;;1.75;;
30380;SDS011;17169;50.966;11.038;2023-12-20T16:06:48;7.32;;;1.77;;
30380;SDS011;17169;50.966;11.038;2023-12-20T16:09:50;9.98;;;1.88;;
30380;SDS011;17169;50.966;11.038;2023-12-20T16:12:53;4.88;;;1.65;;
30380;SDS011;17169;50.966;11.038;2023-12-20T16:15:56;3.55;;;1.80;;
30380;SDS011;17169;50.966;11.038;2023-12-20T16:18:58;6.45;;;1.90;;
30380;SDS011;17169;50.966;11.038;2023-12-20T16:22:02;4.40;;;1.48;;
30380;SDS011;17169;50.966;11.038;2023-12-20T16:25:05;4.22;;;1.50;;
30380;SDS011;17169;50.966;11.038;2023-12-20T16:28:07;3.33;;;1.42;;
30380;SDS011;17169;50.966;11.038;2023-12-20T16:31:10;6.55;;;1.77;;
30380;SDS011;17169;50.966;11.038;2023-12-20T16:34:12;3.80;;;1.50;;
30380;SDS011;17169;50.966;11.038;2023-12-20T16:37:16;3.83;;;1.35;;
30380;SDS011;17169;50.966;11.038;2023-12-20T16:40:18;3.30;;;1.20;;
30380;SDS011;17169;50.966;11.038;2023-12-20T16:43:24;4.18;;;1.67;;
30380;SDS011;17169;50.966;11.038;2023-12-20T16:46:27;6.97;;;1.60;;
30380;SDS011;17169;50.966;11.038;2023-12-20T16:49:29;7.53;;;1.70;;
30380;SDS011;17169;50.966;11.038;2023-12-20T16:52:33;8.52;;;2.20;;
30380;SDS011;17169;50.966;11.038;2023-12-20T16:55:36;8.20;;;1.65;;
30380;SDS011;17169;50.966;11.038;2023-12-20T16:58:38;3.80;;;1.45;;
30380;SDS011;17169;50.966;11.038;2023-12-20T17:01:40;4.00;;;1.52;;
30380;SDS011;17169;50.966;11.038;2023-12-20T17:04:45;3.85;;;1.58;;
30380;SDS011;17169;50.966;11.038;2023-12-20T17:07:50;4.30;;;1.48;;
30380;SDS011;17169;50.966;11.038;2023-12-20T17:10:53;6.63;;;1.73;;
30380;SDS011;17169;50.966;11.038;2023-12-20T17:13:55;3.80;;;1.80;;
30380;SDS011;17169;50.966;11.038;2023-12-20T17:16:58;3.00;;;1.55;;
30380;SDS011;17169;50.966;11.038;2023-12-20T17:20:01;7.38;;;1.67;;
30380;SDS011;17169;50.966;11.038;2023-12-20T17:23:05;7.05;;;1.95;;
30380;SDS011;17169;50.966;11.038;2023-12-20T17:26:08;8.85;;;1.73;;
30380;SDS011;17169;50.966;11.038;2023-12-20T17:29:10;4.90;;;1.77;;
30380;SDS011;17169;50.966;11.038;2023-12-20T17:32:13;6.65;;;1.30;;
30380;SDS011;17169;50.966;11.038;2023-12-20T17:35:15;3.63;;;1.33;;
30380;SDS011;17169;50.966;11.038;2023-12-20T17:38:20;6.00;;;1.90;;
30380;SDS011;17169;50.966;11.038;2023-12-20T17:41:22;7.55;;;1.70;;
30380;SDS011;17169;50.966;11.038;2023-12-20T17:44:24;7.95;;;2.40;;
30380;SDS011;17169;50.966;11.038;2023-12-20T17:47:27;6.22;;;1.95;;
30380;SDS011;17169;50.966;11.038;2023-12-20T17:50:29;4.43;;;1.77;;
30380;SDS011;17169;50.966;11.038;2023-12-20T17:53:33;6.85;;;2.03;;
30380;SDS011;17169;50.966;11.038;2023-12-20T17:56:36;4.13;;;1.85;;
30380;SDS011;17169;50.966;11.038;2023-12-20T17:59:38;4.43;;;2.30;;
30380;SDS011;17169;50.966;11.038;2023-12-20T18:02:42;3.75;;;1.70;;
30380;SDS011;17169;50.966;11.038;2023-12-20T18:05:44;4.80;;;1.83;;
30380;SDS011;17169;50.966;11.038;2023-12-20T18:08:48;10.15;;;2.13;;
30380;SDS011;17169;50.966;11.038;2023-12-20T18:11:50;6.18;;;1.90;;